Virgem da Lapa, Brazil
Current Conditions -  °F | °C
As of 4:00 PM on Monday 22 Dec 2014 (Local Time) from SBMK Reporting Station
Rain Showers Rain Showers  
Wind Chill: 91°   Ceiling: Unl
Heat Index: 92°   Visibility: 6mi
Dew Point: 63°   Wind: 6mph
Humidity: 38%   Direction: 350°N
Pressure: 29.88"   Gusts: NA
Location:  16.8°S, 42.34°W
Report Text: SBMK 221800Z 35005KT 9999 VCSH FEW045 SCT050TCU 33/17 Q1012
Loading
Personal Weather Stations






























Interactive Weather Map New forecast layout! Learn more

10-Day Weather Forecast

Advertisements
Track Severe Weather on mobile